createdAt,value
2022-10-22T00:01:03.720Z,70.13
2022-10-22T00:03:31.726Z,70.11
2022-10-22T00:05:59.518Z,70.25
2022-10-22T00:08:27.435Z,70.34
2022-10-22T00:10:55.634Z,70.24
2022-10-22T00:13:23.722Z,70.48
2022-10-22T00:15:52.970Z,70.53
2022-10-22T00:18:21.460Z,70.35
2022-10-22T00:20:49.377Z,70.55
2022-10-22T00:23:17.454Z,70.66
2022-10-22T00:25:46.387Z,70.63
2022-10-22T00:28:15.125Z,70.61
2022-10-22T00:30:43.252Z,70.62
2022-10-22T00:33:12.415Z,70.90
2022-10-22T00:35:40.258Z,70.78
2022-10-22T00:38:08.461Z,70.75
2022-10-22T00:40:36.470Z,70.74
2022-10-22T00:43:04.468Z,70.89
2022-10-22T00:45:32.589Z,70.92
2022-10-22T00:48:05.762Z,71.19
2022-10-22T00:50:39.133Z,71.20
2022-10-22T00:53:11.689Z,71.17
2022-10-22T00:55:40.734Z,71.44
2022-10-22T00:58:08.654Z,71.45
2022-10-22T01:00:36.746Z,71.26
2022-10-22T01:03:05.368Z,71.54
2022-10-22T01:05:40.427Z,71.53
2022-10-22T01:08:14.167Z,71.46
2022-10-22T01:10:55.975Z,71.79
2022-10-22T01:13:36.922Z,71.57
2022-10-22T01:16:12.668Z,71.62
2022-10-22T01:18:49.422Z,71.76
2022-10-22T01:21:27.921Z,71.70
2022-10-22T01:24:26.937Z,72.05
2022-10-22T01:27:05.455Z,71.84
2022-10-22T01:29:41.711Z,72.20
2022-10-22T01:32:14.234Z,72.34
2022-10-22T01:34:45.684Z,71.74
2022-10-22T01:37:16.488Z,72.02
2022-10-22T01:39:46.463Z,72.33
2022-10-22T01:42:15.420Z,72.07
2022-10-22T01:44:44.837Z,71.99
2022-10-22T01:47:19.496Z,72.10
2022-10-22T01:50:14.423Z,72.32
2022-10-22T01:52:58.227Z,72.39
2022-10-22T01:55:34.757Z,72.33
2022-10-22T01:58:16.990Z,72.18
2022-10-22T02:00:52.033Z,72.76
2022-10-22T02:03:26.800Z,72.44
2022-10-22T02:05:58.474Z,72.31
2022-10-22T02:08:30.677Z,72.79
2022-10-22T02:11:00.196Z,72.21
2022-10-22T02:13:33.419Z,72.43
2022-10-22T02:16:04.466Z,72.83
2022-10-22T02:18:36.426Z,72.45
2022-10-22T02:23:41.876Z,72.66
2022-10-22T02:26:20.674Z,72.63
2022-10-22T02:28:57.631Z,72.69
2022-10-22T02:31:31.073Z,72.56
2022-10-22T02:34:04.871Z,73.01
2022-10-22T02:36:33.585Z,72.99
2022-10-22T02:39:02.764Z,73.06
2022-10-22T02:41:31.345Z,72.83
2022-10-22T02:43:59.312Z,73.12
2022-10-22T02:46:28.565Z,73.16
2022-10-22T02:48:56.730Z,73.12
2022-10-22T02:51:25.194Z,73.20
2022-10-22T02:53:53.076Z,73.25
2022-10-22T02:56:21.085Z,73.24
2022-10-22T02:58:49.267Z,73.61
2022-10-22T03:01:17.223Z,73.17
2022-10-22T03:03:46.585Z,73.38
2022-10-22T03:06:14.540Z,73.37
2022-10-22T03:08:42.852Z,73.81
2022-10-22T03:11:10.830Z,73.86
2022-10-22T03:13:38.789Z,73.99
2022-10-22T03:16:07.289Z,73.84
2022-10-22T03:18:35.519Z,74.07
2022-10-22T03:21:10.957Z,74.13
2022-10-22T03:23:41.500Z,73.93
2022-10-22T03:26:11.264Z,74.08
2022-10-22T03:28:41.763Z,74.09
2022-10-22T03:31:09.923Z,73.71
2022-10-22T03:33:37.885Z,74.26
2022-10-22T03:36:09.151Z,74.08
2022-10-22T03:38:38.639Z,74.24
2022-10-22T03:41:07.264Z,73.99
2022-10-22T03:43:35.669Z,73.96
2022-10-22T03:46:03.656Z,74.29
2022-10-22T03:48:31.520Z,74.27
2022-10-22T03:50:59.495Z,74.54
2022-10-22T03:53:28.838Z,74.31
2022-10-22T03:55:56.938Z,74.41
2022-10-22T03:58:25.171Z,74.64
2022-10-22T04:00:53.388Z,74.45
2022-10-22T04:03:21.582Z,74.31
2022-10-22T04:05:49.350Z,74.60
2022-10-22T04:08:17.851Z,74.32
2022-10-22T04:10:53.213Z,74.71
2022-10-22T04:13:21.156Z,74.83
2022-10-22T04:15:49.086Z,74.59
2022-10-22T04:18:16.975Z,74.84
2022-10-22T04:20:45.021Z,74.56
2022-10-22T04:23:12.960Z,74.75
2022-10-22T04:25:40.936Z,74.81
2022-10-22T04:28:10.999Z,74.98
2022-10-22T04:30:38.949Z,74.87
2022-10-22T04:33:06.808Z,74.74
2022-10-22T04:35:34.799Z,74.99
2022-10-22T04:38:02.630Z,74.97
2022-10-22T04:40:30.455Z,74.86
2022-10-22T04:42:58.431Z,74.91
2022-10-22T04:45:27.869Z,74.97
2022-10-22T04:47:55.870Z,74.95
2022-10-22T04:50:24.040Z,74.79
2022-10-22T04:52:52.087Z,75.21
2022-10-22T04:55:20.169Z,74.98
2022-10-22T04:57:48.129Z,75.18
2022-10-22T05:00:17.253Z,75.21
2022-10-22T05:02:50.535Z,75.03
2022-10-22T05:05:18.567Z,75.21
2022-10-22T05:07:46.692Z,75.20
2022-10-22T05:10:14.578Z,75.25
2022-10-22T05:12:42.875Z,75.02
2022-10-22T05:15:13.421Z,75.34
2022-10-22T05:17:41.422Z,75.26
2022-10-22T05:20:12.176Z,75.37
2022-10-22T05:22:40.030Z,75.26
2022-10-22T05:25:09.015Z,75.27
2022-10-22T05:27:37.008Z,75.53
2022-10-22T05:30:06.892Z,75.47
2022-10-22T05:32:36.373Z,75.44
2022-10-22T05:35:04.603Z,75.88
2022-10-22T05:37:33.915Z,75.64
2022-10-22T05:40:12.755Z,75.88
2022-10-22T05:42:50.004Z,75.69
2022-10-22T05:45:18.054Z,75.85
2022-10-22T05:47:45.859Z,75.67
2022-10-22T05:50:13.914Z,75.99
2022-10-22T05:52:43.149Z,76.15
2022-10-22T05:55:11.476Z,75.99
2022-10-22T05:57:41.064Z,76.06
2022-10-22T06:00:12.816Z,76.18
2022-10-22T06:02:44.188Z,76.17
2022-10-22T06:05:12.070Z,76.48
2022-10-22T06:07:40.060Z,76.19
2022-10-22T06:10:16.484Z,76.10
2022-10-22T06:12:44.484Z,76.40
2022-10-22T06:15:13.684Z,76.45
2022-10-22T06:17:41.548Z,76.15
2022-10-22T06:20:11.116Z,76.63
2022-10-22T06:22:39.282Z,76.40
2022-10-22T06:25:08.589Z,77.03
2022-10-22T06:27:37.969Z,76.60
2022-10-22T06:30:06.660Z,76.82
2022-10-22T06:32:35.242Z,76.50
2022-10-22T06:35:03.170Z,76.88
2022-10-22T06:37:31.336Z,76.83
2022-10-22T06:39:59.314Z,76.65
2022-10-22T06:42:27.360Z,77.15
2022-10-22T06:44:57.132Z,76.75
2022-10-22T06:47:25.579Z,77.41
2022-10-22T06:49:53.495Z,77.25
2022-10-22T06:52:21.453Z,77.20
2022-10-22T06:54:49.329Z,77.06
2022-10-22T06:57:20.255Z,77.24
2022-10-22T06:59:48.347Z,77.39
2022-10-22T07:02:17.884Z,77.45
2022-10-22T07:04:46.114Z,77.39
2022-10-22T07:07:14.959Z,77.53
2022-10-22T07:09:45.764Z,77.31
2022-10-22T07:12:14.736Z,77.48
2022-10-22T07:14:43.056Z,78.09
2022-10-22T07:17:11.503Z,77.80
2022-10-22T07:19:40.937Z,77.97
2022-10-22T07:22:08.779Z,77.48
2022-10-22T07:24:36.799Z,77.66
2022-10-22T07:27:09.369Z,78.11
2022-10-22T07:29:38.911Z,77.95
2022-10-22T07:32:07.273Z,77.59
2022-10-22T07:34:35.756Z,77.93
2022-10-22T07:37:06.118Z,78.17
2022-10-22T07:39:34.280Z,78.21
2022-10-22T07:42:02.360Z,78.40
2022-10-22T07:44:30.385Z,78.57
2022-10-22T07:46:58.369Z,78.47
2022-10-22T07:49:26.320Z,78.63
2022-10-22T07:51:54.372Z,78.63
2022-10-22T07:54:24.081Z,78.14
2022-10-22T07:56:52.100Z,78.78
2022-10-22T07:59:20.012Z,77.96
2022-10-22T08:01:50.550Z,78.92
2022-10-22T08:04:18.365Z,78.78
2022-10-22T08:06:47.365Z,78.90
2022-10-22T08:09:16.120Z,78.77
2022-10-22T08:11:45.827Z,78.65
2022-10-22T08:14:13.841Z,78.84
2022-10-22T08:16:42.069Z,79.02
2022-10-22T08:19:09.900Z,78.80
2022-10-22T08:21:37.970Z,78.66
2022-10-22T08:26:40.140Z,79.15
2022-10-22T08:29:09.855Z,79.01
2022-10-22T08:31:37.768Z,79.21
2022-10-22T08:34:08.389Z,79.00
2022-10-22T08:36:36.193Z,79.10
2022-10-22T08:39:04.373Z,79.10
2022-10-22T08:41:36.656Z,78.74
2022-10-22T08:44:27.569Z,79.34
2022-10-22T08:47:12.659Z,79.10
2022-10-22T08:49:43.622Z,79.09
2022-10-22T08:52:16.759Z,79.00
2022-10-22T08:54:52.418Z,79.32
2022-10-22T08:57:42.662Z,79.58
2022-10-22T09:00:17.388Z,79.17
2022-10-22T09:02:57.804Z,79.36
2022-10-22T09:05:39.618Z,79.69
2022-10-22T09:08:12.254Z,79.46
2022-10-22T09:10:44.972Z,79.32
2022-10-22T09:13:15.618Z,79.68
2022-10-22T09:15:47.318Z,79.75
2022-10-22T09:18:32.157Z,79.76
2022-10-22T09:21:06.964Z,79.82
2022-10-22T09:23:41.058Z,79.84
2022-10-22T09:26:15.838Z,79.74
2022-10-22T09:28:44.832Z,79.78
2022-10-22T09:31:15.851Z,79.79
2022-10-22T09:33:47.915Z,79.85
2022-10-22T09:36:19.393Z,79.95
2022-10-22T09:38:49.625Z,79.61
2022-10-22T09:41:18.459Z,80.23
2022-10-22T09:43:48.646Z,80.08
2022-10-22T09:46:19.760Z,79.90
2022-10-22T09:48:51.915Z,80.15
2022-10-22T09:51:23.075Z,79.98
2022-10-22T09:53:58.485Z,80.39
2022-10-22T09:56:28.745Z,80.04
2022-10-22T09:58:58.048Z,79.92
2022-10-22T10:01:31.967Z,80.23
2022-10-22T10:04:09.424Z,80.08
2022-10-22T10:06:40.611Z,79.90
2022-10-22T10:09:19.403Z,80.67
2022-10-22T10:11:53.076Z,80.47
2022-10-22T10:14:29.694Z,80.59
2022-10-22T10:17:04.798Z,80.66
2022-10-22T10:19:48.095Z,80.77
2022-10-22T10:22:32.062Z,80.08
2022-10-22T10:25:19.212Z,80.91
2022-10-22T10:27:51.784Z,80.89
2022-10-22T10:30:23.974Z,80.28
2022-10-22T10:33:13.790Z,80.63
2022-10-22T10:35:55.042Z,80.49
2022-10-22T10:38:36.689Z,80.67
2022-10-22T10:41:16.990Z,80.89
2022-10-22T10:43:56.594Z,80.48
2022-10-22T10:46:37.042Z,80.95
2022-10-22T10:49:10.841Z,80.55
2022-10-22T10:51:49.853Z,80.57
2022-10-22T10:54:28.791Z,80.25
2022-10-22T10:57:01.319Z,80.55
2022-10-22T10:59:51.168Z,80.60
2022-10-22T11:02:46.214Z,80.86
2022-10-22T11:05:28.247Z,80.38
2022-10-22T11:07:59.370Z,81.16
2022-10-22T11:10:33.077Z,80.68
2022-10-22T11:13:08.567Z,80.84
2022-10-22T11:15:40.483Z,80.43
2022-10-22T11:18:17.472Z,80.63
2022-10-22T11:20:54.186Z,80.82
2022-10-22T11:23:29.579Z,80.55
2022-10-22T11:25:57.391Z,80.75
2022-10-22T11:28:29.446Z,80.77
2022-10-22T11:31:03.286Z,80.75
2022-10-22T11:33:43.929Z,80.23
2022-10-22T11:36:13.871Z,80.73
2022-10-22T11:41:31.352Z,80.51
2022-10-22T11:44:09.632Z,80.21
2022-10-22T11:46:54.877Z,80.59
2022-10-22T11:49:28.932Z,80.67
2022-10-22T11:52:25.499Z,80.08
2022-10-22T11:54:57.862Z,81.05
2022-10-22T11:57:36.618Z,80.69
2022-10-22T12:00:14.216Z,80.48
2022-10-22T12:02:45.185Z,80.31
2022-10-22T12:05:44.502Z,80.61
2022-10-22T12:08:27.646Z,80.51
2022-10-22T12:11:07.256Z,80.64
2022-10-22T12:13:54.298Z,79.80
2022-10-22T12:16:32.497Z,80.71
2022-10-22T12:19:16.335Z,80.36
2022-10-22T12:21:49.079Z,79.95
2022-10-22T12:24:21.008Z,80.30
2022-10-22T12:26:52.674Z,80.35
2022-10-22T12:29:25.846Z,79.88
2022-10-22T12:31:54.353Z,80.28
2022-10-22T12:34:25.397Z,80.19
2022-10-22T12:36:55.652Z,79.77
2022-10-22T12:39:32.734Z,79.96
2022-10-22T12:42:01.029Z,79.68
2022-10-22T12:44:28.894Z,80.06
2022-10-22T12:46:57.203Z,79.77
2022-10-22T12:49:34.462Z,80.19
2022-10-22T12:52:08.645Z,80.67
2022-10-22T12:54:41.740Z,79.99
2022-10-22T12:57:14.531Z,80.65
2022-10-22T12:59:48.756Z,80.21
2022-10-22T13:02:22.683Z,79.71
2022-10-22T13:05:18.394Z,79.93
2022-10-22T13:07:50.771Z,80.25
2022-10-22T13:10:26.082Z,80.33
2022-10-22T13:12:58.622Z,79.81
2022-10-22T13:15:38.916Z,79.72
2022-10-22T13:18:17.759Z,80.49
2022-10-22T13:20:54.696Z,80.26
2022-10-22T13:23:26.696Z,79.75
2022-10-22T13:26:08.745Z,79.91
2022-10-22T13:28:39.795Z,80.30
2022-10-22T13:31:12.563Z,79.93
2022-10-22T13:33:42.826Z,79.85
2022-10-22T13:36:15.120Z,80.13
2022-10-22T13:38:43.793Z,80.30
2022-10-22T13:41:22.609Z,80.06
2022-10-22T13:43:51.370Z,79.78
2022-10-22T13:46:20.070Z,80.11
2022-10-22T13:48:49.626Z,79.74
2022-10-22T13:51:21.468Z,79.68
2022-10-22T13:53:51.788Z,80.29
2022-10-22T13:56:22.649Z,79.67
2022-10-22T13:58:50.965Z,79.58
2022-10-22T14:01:22.447Z,79.28
2022-10-22T14:03:51.835Z,79.86
2022-10-22T14:06:21.280Z,79.96
2022-10-22T14:08:54.445Z,79.45
2022-10-22T14:11:23.637Z,79.48
2022-10-22T14:13:51.632Z,79.77
2022-10-22T14:16:21.878Z,79.29
2022-10-22T14:18:50.293Z,79.26
2022-10-22T14:21:19.084Z,79.84
2022-10-22T14:23:48.829Z,79.46
2022-10-22T14:26:23.949Z,79.73
2022-10-22T14:34:15.622Z,79.70
2022-10-22T14:36:44.793Z,79.60
2022-10-22T14:39:12.880Z,79.72
2022-10-22T14:41:43.005Z,80.08
2022-10-22T14:44:14.325Z,80.05
2022-10-22T14:46:44.464Z,79.42
2022-10-22T14:49:12.640Z,80.17
2022-10-22T14:51:40.546Z,79.62
2022-10-22T14:54:08.455Z,79.46
2022-10-22T14:56:41.611Z,80.06
2022-10-22T14:59:18.849Z,80.15
2022-10-22T15:01:46.658Z,79.86
2022-10-22T15:04:14.651Z,79.51
2022-10-22T15:06:42.856Z,79.73
2022-10-22T15:09:10.948Z,79.57
2022-10-22T15:11:38.992Z,79.92
2022-10-22T15:14:06.943Z,79.70
2022-10-22T15:16:36.187Z,79.77
2022-10-22T15:19:04.161Z,79.89
2022-10-22T15:21:31.970Z,79.63
2022-10-22T15:24:00.891Z,79.89
2022-10-22T15:26:29.268Z,79.79
2022-10-22T15:28:57.490Z,79.98
2022-10-22T15:31:46.231Z,80.00
2022-10-22T15:34:14.489Z,79.95
2022-10-22T15:36:42.417Z,79.98
2022-10-22T15:39:12.606Z,79.86
2022-10-22T15:41:40.645Z,80.07
2022-10-22T15:44:08.777Z,80.05
2022-10-22T15:46:37.162Z,79.77
2022-10-22T15:49:08.651Z,79.62
2022-10-22T15:51:36.771Z,80.02
2022-10-22T15:54:09.274Z,80.02
2022-10-22T15:56:37.997Z,80.05
2022-10-22T15:59:05.965Z,80.19
2022-10-22T16:01:35.416Z,80.19
2022-10-22T16:04:03.776Z,80.14
2022-10-22T16:06:35.697Z,80.20
2022-10-22T16:09:05.921Z,80.05
2022-10-22T16:11:34.311Z,80.14
2022-10-22T16:14:02.619Z,80.32
2022-10-22T16:16:32.888Z,79.79
2022-10-22T16:19:01.273Z,79.76
2022-10-22T16:21:29.765Z,80.32
2022-10-22T16:24:06.005Z,80.28
2022-10-22T16:26:34.877Z,80.26
2022-10-22T16:29:03.313Z,80.25
2022-10-22T16:31:31.286Z,80.10
2022-10-22T16:33:59.458Z,80.11
2022-10-22T16:36:27.655Z,80.66
2022-10-22T16:38:56.345Z,80.38
2022-10-22T16:41:35.005Z,80.64
2022-10-22T16:44:04.974Z,80.46
2022-10-22T16:46:33.624Z,80.24
2022-10-22T16:49:01.809Z,80.34
2022-10-22T16:51:30.182Z,80.36
2022-10-22T16:53:58.721Z,80.65
2022-10-22T16:56:28.564Z,80.59
2022-10-22T16:58:58.381Z,80.67
2022-10-22T17:01:30.204Z,80.34
2022-10-22T17:04:00.674Z,80.14
2022-10-22T17:06:29.070Z,80.41
2022-10-22T17:08:57.521Z,80.65
2022-10-22T17:11:26.468Z,80.82
2022-10-22T17:13:58.909Z,80.59
2022-10-22T17:16:26.934Z,80.84
2022-10-22T17:18:55.913Z,80.67
2022-10-22T17:21:24.598Z,80.58
2022-10-22T17:23:56.925Z,80.89
2022-10-22T17:26:27.176Z,80.96
2022-10-22T17:28:57.015Z,80.49
2022-10-22T17:31:27.762Z,81.05
2022-10-22T17:33:58.147Z,80.90
2022-10-22T17:37:06.531Z,81.11
2022-10-22T17:39:34.809Z,80.94
2022-10-22T17:42:02.819Z,80.90
2022-10-22T17:44:35.528Z,81.09
2022-10-22T17:47:04.407Z,81.17
2022-10-22T17:49:32.221Z,80.67
2022-10-22T17:54:28.178Z,80.84
2022-10-22T17:56:56.048Z,81.04
2022-10-22T17:59:23.987Z,80.87
2022-10-22T18:01:55.785Z,81.14
2022-10-22T18:04:27.409Z,81.06
2022-10-22T18:06:55.904Z,81.01
2022-10-22T18:09:24.485Z,81.31
2022-10-22T18:11:54.814Z,81.20
2022-10-22T18:14:23.818Z,81.69
2022-10-22T18:16:53.718Z,81.08
2022-10-22T18:19:24.649Z,81.83
2022-10-22T18:21:52.613Z,81.07
2022-10-22T18:24:20.667Z,81.49
2022-10-22T18:26:48.917Z,81.31
2022-10-22T18:29:20.133Z,81.16
2022-10-22T18:31:48.248Z,81.54
2022-10-22T18:34:23.205Z,81.39
2022-10-22T18:36:51.957Z,81.31
2022-10-22T18:39:20.164Z,81.56
2022-10-22T18:41:48.176Z,81.67
2022-10-22T18:44:17.929Z,81.45
2022-10-22T18:46:45.905Z,81.58
2022-10-22T18:49:18.262Z,81.57
2022-10-22T18:51:52.740Z,81.51
2022-10-22T18:54:23.581Z,81.42
2022-10-22T18:56:52.457Z,81.76
2022-10-22T18:59:22.206Z,82.04
2022-10-22T19:01:51.392Z,82.01
2022-10-22T19:04:19.515Z,81.71
2022-10-22T19:06:48.830Z,81.55
2022-10-22T19:09:17.819Z,81.53
2022-10-22T19:11:47.044Z,81.85
2022-10-22T19:14:19.306Z,82.04
2022-10-22T19:16:47.406Z,81.97
2022-10-22T19:19:18.258Z,82.01
2022-10-22T19:21:46.384Z,82.06
2022-10-22T19:24:17.016Z,81.74
2022-10-22T19:26:45.874Z,82.00
2022-10-22T19:29:16.575Z,82.28
2022-10-22T19:31:44.571Z,82.13
2022-10-22T19:34:12.757Z,82.25
2022-10-22T19:36:40.803Z,82.28
2022-10-22T19:39:09.114Z,82.12
2022-10-22T19:41:38.518Z,82.56
2022-10-22T19:44:06.640Z,82.24
2022-10-22T19:46:34.800Z,81.81
2022-10-22T19:49:03.453Z,82.46
2022-10-22T19:51:33.957Z,81.94
2022-10-22T19:54:03.452Z,82.33
2022-10-22T19:56:31.835Z,82.17
2022-10-22T19:59:01.333Z,82.21
2022-10-22T20:01:32.967Z,82.17
2022-10-22T20:04:01.598Z,82.79
2022-10-22T20:06:30.486Z,82.21
2022-10-22T20:08:58.806Z,82.69
2022-10-22T20:11:28.856Z,82.61
2022-10-22T20:13:57.884Z,82.30
2022-10-22T20:16:29.998Z,82.84
2022-10-22T20:19:01.499Z,82.69
2022-10-22T20:21:29.540Z,82.89
2022-10-22T20:23:57.695Z,82.91
2022-10-22T20:26:28.265Z,82.28
2022-10-22T20:28:56.994Z,82.53
2022-10-22T20:31:28.818Z,82.66
2022-10-22T20:33:58.558Z,82.66
2022-10-22T20:36:28.423Z,82.62
2022-10-22T20:39:02.359Z,83.02
2022-10-22T20:41:30.566Z,82.97
2022-10-22T20:43:58.686Z,82.31
2022-10-22T20:46:30.500Z,83.29
2022-10-22T20:49:01.283Z,83.05
2022-10-22T20:51:29.440Z,82.77
2022-10-22T20:53:57.726Z,82.73
2022-10-22T20:56:25.895Z,82.53
2022-10-22T20:59:04.401Z,82.44
2022-10-22T21:01:36.952Z,82.65
2022-10-22T21:04:05.997Z,82.58
2022-10-22T21:06:37.968Z,83.11
2022-10-22T21:09:07.341Z,82.94
2022-10-22T21:11:36.023Z,83.22
2022-10-22T21:14:04.807Z,82.92
2022-10-22T21:16:34.314Z,83.25
2022-10-22T21:19:02.269Z,82.78
2022-10-22T21:21:30.137Z,82.94
2022-10-22T21:23:58.124Z,82.86
2022-10-22T21:26:26.177Z,82.69
2022-10-22T21:28:54.049Z,83.17
2022-10-22T21:31:24.329Z,83.33
2022-10-22T21:33:54.598Z,83.14
2022-10-22T21:36:23.711Z,82.99
2022-10-22T21:38:52.408Z,83.02
2022-10-22T21:41:22.837Z,83.14
2022-10-22T21:43:51.782Z,82.88
2022-10-22T21:46:21.561Z,83.35
2022-10-22T21:48:55.892Z,83.32
2022-10-22T21:51:25.398Z,82.69
2022-10-22T21:53:54.944Z,83.10
2022-10-22T21:56:25.508Z,83.13
2022-10-22T21:58:53.601Z,83.09
2022-10-22T22:01:22.168Z,82.96
2022-10-22T22:03:51.166Z,83.10
2022-10-22T22:06:24.034Z,83.05
2022-10-22T22:08:53.842Z,83.12
2022-10-22T22:11:24.180Z,83.00
2022-10-22T22:13:52.560Z,83.39
2022-10-22T22:16:27.067Z,83.04
2022-10-22T22:18:57.297Z,83.13
2022-10-22T22:21:27.053Z,83.05
2022-10-22T22:23:55.139Z,83.23
2022-10-22T22:26:29.458Z,83.22
2022-10-22T22:28:59.510Z,83.00
2022-10-22T22:31:29.948Z,83.41
2022-10-22T22:34:02.801Z,82.98
2022-10-22T22:36:36.569Z,83.12
2022-10-22T22:39:05.210Z,82.86
2022-10-22T22:41:33.294Z,83.25
2022-10-22T22:44:01.306Z,83.37
2022-10-22T22:46:29.131Z,83.26
2022-10-22T22:48:57.521Z,83.35
2022-10-22T22:51:25.646Z,82.88
2022-10-22T22:53:54.895Z,82.89
2022-10-22T22:56:24.488Z,82.92
2022-10-22T22:58:52.411Z,82.92
2022-10-22T23:01:23.124Z,82.62
2022-10-22T23:03:56.879Z,82.86
2022-10-22T23:06:28.572Z,83.13
2022-10-22T23:08:59.478Z,82.97
2022-10-22T23:11:29.752Z,83.33
2022-10-22T23:13:59.630Z,82.95
2022-10-22T23:16:30.948Z,83.29
2022-10-22T23:19:00.088Z,82.98
2022-10-22T23:21:30.329Z,82.62
2022-10-22T23:24:01.733Z,82.71
2022-10-22T23:26:32.076Z,82.54
2022-10-22T23:29:02.237Z,83.40
2022-10-22T23:31:30.694Z,82.94
2022-10-22T23:33:58.842Z,82.92
2022-10-22T23:36:27.136Z,82.99
2022-10-22T23:38:55.670Z,83.16
2022-10-22T23:41:24.939Z,82.89
2022-10-22T23:43:53.130Z,82.71
2022-10-22T23:46:21.344Z,83.35
2022-10-22T23:48:50.238Z,82.91
2022-10-22T23:51:18.420Z,83.31
2022-10-22T23:53:47.549Z,82.82
2022-10-22T23:56:19.259Z,82.88
2022-10-22T23:58:51.588Z,82.73
